createdAt,value
2019-03-04T00:03:30.644Z,2.27
2019-03-04T00:08:36.657Z,2.00
2019-03-04T00:13:42.664Z,2.40
2019-03-04T00:18:48.924Z,2.67
2019-03-04T00:23:55.025Z,2.90
2019-03-04T00:29:01.114Z,3.73
2019-03-04T00:34:07.337Z,2.23
2019-03-04T00:39:13.516Z,2.10
2019-03-04T00:44:19.629Z,2.10
2019-03-04T00:49:25.610Z,1.97
2019-03-04T00:54:31.768Z,2.23
2019-03-04T00:59:37.944Z,2.37
2019-03-04T01:04:44.066Z,2.40
2019-03-04T01:09:50.313Z,2.60
2019-03-04T01:14:56.475Z,3.17
2019-03-04T01:20:03.553Z,2.47
2019-03-04T01:25:11.285Z,2.17
2019-03-04T01:30:19.627Z,2.07
2019-03-04T01:35:25.679Z,2.63
2019-03-04T01:40:31.659Z,2.23
2019-03-04T01:45:37.628Z,2.50
2019-03-04T01:50:43.892Z,2.43
2019-03-04T01:55:50.099Z,2.47
2019-03-04T02:00:56.224Z,2.20
2019-03-04T02:06:02.425Z,2.40
2019-03-04T02:11:08.611Z,2.40
2019-03-04T02:16:14.671Z,1.90
2019-03-04T02:21:20.784Z,2.40
2019-03-04T02:26:31.761Z,2.23
2019-03-04T02:31:37.847Z,2.23
2019-03-04T02:36:43.906Z,2.27
2019-03-04T02:41:50.032Z,2.13
2019-03-04T02:46:56.189Z,2.20
2019-03-04T02:52:02.239Z,2.20
2019-03-04T02:57:08.205Z,2.23
2019-03-04T03:02:15.308Z,2.10
2019-03-04T03:07:21.393Z,2.97
2019-03-04T03:12:27.568Z,2.30
2019-03-04T03:17:33.614Z,2.03
2019-03-04T03:22:39.698Z,2.63
2019-03-04T03:27:45.959Z,2.20
2019-03-04T03:32:52.101Z,2.53
2019-03-04T03:37:58.120Z,2.10
2019-03-04T03:43:04.214Z,2.20
2019-03-04T03:48:10.331Z,2.10
2019-03-04T03:53:16.439Z,2.40
2019-03-04T03:58:25.087Z,2.20
2019-03-04T04:03:30.230Z,3.10
2019-03-04T04:08:36.311Z,2.23
2019-03-04T04:13:42.906Z,1.80
2019-03-04T04:18:49.037Z,1.80
2019-03-04T04:23:55.055Z,2.00
2019-03-04T04:29:09.870Z,2.40
2019-03-04T04:34:15.937Z,2.10
2019-03-04T04:39:22.201Z,1.90
2019-03-04T04:44:28.276Z,1.97
2019-03-04T04:49:34.977Z,1.60
2019-03-04T04:54:41.042Z,1.70
2019-03-04T04:59:47.007Z,1.70
2019-03-04T05:04:53.076Z,1.80
2019-03-04T05:09:59.267Z,1.93
2019-03-04T05:15:05.739Z,1.70
2019-03-04T05:20:14.082Z,1.73
2019-03-04T05:25:20.114Z,1.90
2019-03-04T05:30:26.314Z,1.87
2019-03-04T05:35:33.505Z,2.20
2019-03-04T05:40:39.513Z,2.27
2019-03-04T05:45:45.483Z,1.63
2019-03-04T05:50:51.542Z,1.80
2019-03-04T05:55:57.699Z,1.63
2019-03-04T06:01:32.376Z,1.70
2019-03-04T06:06:53.927Z,1.80
2019-03-04T06:12:00.061Z,2.10
2019-03-04T06:17:06.131Z,1.50
2019-03-04T06:22:12.426Z,5.17
2019-03-04T06:27:18.616Z,9.87
2019-03-04T06:32:24.681Z,6.10
2019-03-04T06:37:30.852Z,4.47
2019-03-04T06:42:37.024Z,2.60
2019-03-04T06:47:43.243Z,2.60
2019-03-04T06:52:49.250Z,2.10
2019-03-04T06:57:55.576Z,2.90
2019-03-04T07:03:02.660Z,2.40
2019-03-04T07:08:10.094Z,1.77
2019-03-04T07:13:16.261Z,1.57
2019-03-04T07:18:22.339Z,1.60
2019-03-04T07:23:28.516Z,1.77
2019-03-04T07:28:34.657Z,1.67
2019-03-04T07:33:40.783Z,5.03
2019-03-04T07:38:56.767Z,1.30
2019-03-04T07:44:02.774Z,1.27
2019-03-04T07:49:08.835Z,1.20
2019-03-04T07:54:14.904Z,1.30
2019-03-04T07:59:21.040Z,1.30
2019-03-04T08:04:27.267Z,1.60
2019-03-04T08:10:35.389Z,1.50
2019-03-04T08:15:46.908Z,1.40
2019-03-04T08:20:52.942Z,1.20
2019-03-04T08:25:59.017Z,1.40
2019-03-04T08:31:04.997Z,1.30
2019-03-04T08:36:11.108Z,1.40
2019-03-04T08:41:17.240Z,1.60
2019-03-04T08:46:23.424Z,1.73
2019-03-04T08:51:29.403Z,1.40
2019-03-04T08:56:35.351Z,1.50
2019-03-04T09:01:41.628Z,1.20
2019-03-04T09:06:47.768Z,1.60
2019-03-04T09:11:53.812Z,1.27
2019-03-04T09:16:59.859Z,1.30
2019-03-04T09:22:05.948Z,1.40
2019-03-04T09:27:12.029Z,1.60
2019-03-04T09:32:18.204Z,1.70
2019-03-04T09:37:24.379Z,1.60
2019-03-04T09:42:31.461Z,1.97
2019-03-04T09:47:37.549Z,1.90
2019-03-04T09:52:43.609Z,2.20
2019-03-04T09:57:49.747Z,1.53
2019-03-04T10:02:55.984Z,1.90
2019-03-04T10:08:45.595Z,1.60
2019-03-04T10:14:35.316Z,2.02
2019-03-04T10:20:00.316Z,2.00
2019-03-04T10:25:47.949Z,2.58
2019-03-04T10:31:35.025Z,2.00
2019-03-04T10:37:14.353Z,1.90
2019-03-04T10:42:48.980Z,2.17
2019-03-04T10:47:54.926Z,1.80
2019-03-04T10:53:00.949Z,1.87
2019-03-04T10:58:06.985Z,1.60
2019-03-04T11:03:13.148Z,1.40
2019-03-04T11:08:19.230Z,1.23
2019-03-04T11:13:25.320Z,1.23
2019-03-04T11:18:31.390Z,1.20
2019-03-04T11:23:37.773Z,1.40
2019-03-04T11:28:43.838Z,1.40
2019-03-04T11:33:49.973Z,2.50
2019-03-04T11:39:02.207Z,1.10
2019-03-04T11:44:09.948Z,1.17
2019-03-04T11:49:15.921Z,1.20
2019-03-04T11:54:21.919Z,0.90
2019-03-04T11:59:27.985Z,0.90
2019-03-04T12:04:34.047Z,0.90
2019-03-04T12:09:40.228Z,0.70
2019-03-04T12:14:46.305Z,0.60
2019-03-04T12:19:52.428Z,0.43
2019-03-04T12:24:58.443Z,0.60
2019-03-04T12:30:04.956Z,0.77
2019-03-04T12:35:12.582Z,1.60
2019-03-04T12:40:19.126Z,0.60
2019-03-04T12:45:34.051Z,0.60
2019-03-04T12:50:32.940Z,1.07
2019-03-04T12:55:39.195Z,0.60
2019-03-04T13:00:45.262Z,0.80
2019-03-04T13:05:51.354Z,0.70
2019-03-04T13:10:57.348Z,0.60
2019-03-04T13:16:04.227Z,0.80
2019-03-04T13:21:10.293Z,2.60
2019-03-04T13:26:16.394Z,0.57
2019-03-04T13:31:23.562Z,0.50
2019-03-04T13:36:29.739Z,0.50
2019-03-04T13:41:37.752Z,0.70
2019-03-04T13:46:43.917Z,0.53
2019-03-04T13:51:50.196Z,0.63
2019-03-04T13:56:56.404Z,0.50
2019-03-04T14:02:02.291Z,0.60
2019-03-04T14:07:08.336Z,1.10
2019-03-04T14:12:14.541Z,0.80
2019-03-04T14:17:20.658Z,0.60
2019-03-04T14:22:27.014Z,0.60
2019-03-04T14:27:32.952Z,0.80
2019-03-04T14:32:39.100Z,0.80
2019-03-04T14:37:45.204Z,0.50
2019-03-04T14:42:51.187Z,0.70
2019-03-04T14:47:57.147Z,0.80
2019-03-04T14:53:03.420Z,0.80
2019-03-04T14:58:09.517Z,0.60
2019-03-04T15:03:22.794Z,0.70
2019-03-04T15:08:23.259Z,0.80
2019-03-04T15:13:29.267Z,0.80
2019-03-04T15:18:35.428Z,0.60
2019-03-04T15:23:41.553Z,1.00
2019-03-04T15:28:47.617Z,0.90
2019-03-04T15:33:53.815Z,0.97
2019-03-04T15:39:00.027Z,1.00
2019-03-04T15:44:06.617Z,0.80
2019-03-04T15:49:12.836Z,0.97
2019-03-04T15:54:19.196Z,1.57
2019-03-04T15:59:25.216Z,0.83
2019-03-04T16:04:31.558Z,0.63
2019-03-04T16:09:38.130Z,0.87
2019-03-04T16:14:44.190Z,0.60
2019-03-04T16:19:50.459Z,0.97
2019-03-04T16:24:56.429Z,0.70
2019-03-04T16:30:02.686Z,0.70
2019-03-04T16:35:09.102Z,0.50
2019-03-04T16:40:16.424Z,1.00
2019-03-04T16:45:22.751Z,1.00
2019-03-04T16:50:29.060Z,1.13
2019-03-04T16:55:35.266Z,0.90
2019-03-04T17:00:41.564Z,1.10
2019-03-04T17:05:47.919Z,0.73
2019-03-04T17:10:54.071Z,0.90
2019-03-04T17:16:00.266Z,0.90
2019-03-04T17:21:06.332Z,0.83
2019-03-04T17:26:12.548Z,1.00
2019-03-04T17:31:18.537Z,1.53
2019-03-04T17:36:24.691Z,1.07
2019-03-04T17:41:30.655Z,1.00
2019-03-04T17:46:36.860Z,1.30
2019-03-04T17:51:43.000Z,1.90
2019-03-04T17:56:49.078Z,3.27
2019-03-04T18:01:55.201Z,1.03
2019-03-04T18:07:01.322Z,0.90
2019-03-04T18:12:07.452Z,0.90
2019-03-04T18:17:13.389Z,1.13
2019-03-04T18:22:19.361Z,1.30
2019-03-04T18:27:30.103Z,1.70
2019-03-04T18:33:28.893Z,1.60
2019-03-04T18:39:34.048Z,1.93
2019-03-04T18:45:01.629Z,2.10
2019-03-04T18:50:08.807Z,1.90
2019-03-04T18:55:15.272Z,1.83
2019-03-04T19:00:24.834Z,2.20
2019-03-04T19:05:32.773Z,2.03
2019-03-04T19:10:38.823Z,2.67
2019-03-04T19:15:44.841Z,2.00
2019-03-04T19:20:51.077Z,2.47
2019-03-04T19:25:57.031Z,1.63
2019-03-04T19:31:03.815Z,1.00
2019-03-04T19:36:09.855Z,0.90
2019-03-04T19:41:16.196Z,1.40
2019-03-04T19:46:22.358Z,1.30
2019-03-04T19:51:28.453Z,2.00
2019-03-04T19:56:34.640Z,1.23
2019-03-04T20:01:40.872Z,1.60
2019-03-04T20:06:47.066Z,2.10
2019-03-04T20:11:53.460Z,1.83
2019-03-04T20:16:59.620Z,1.70
2019-03-04T20:22:06.038Z,2.10
2019-03-04T20:27:12.247Z,1.80
2019-03-04T20:32:18.618Z,2.43
2019-03-04T20:37:24.840Z,2.47
2019-03-04T20:42:31.042Z,2.70
2019-03-04T20:47:38.202Z,3.07
2019-03-04T20:52:44.272Z,3.20
2019-03-04T20:57:50.421Z,3.30
2019-03-04T21:02:56.678Z,3.30
2019-03-04T21:08:03.022Z,3.50
2019-03-04T21:13:17.071Z,3.90
2019-03-04T21:18:23.375Z,3.53
2019-03-04T21:23:29.497Z,3.77
2019-03-04T21:29:07.824Z,4.23
2019-03-04T21:35:00.344Z,3.83
2019-03-04T21:40:16.069Z,4.30
2019-03-04T21:46:08.467Z,4.00
2019-03-04T21:51:39.004Z,4.37
2019-03-04T21:56:59.550Z,4.03
2019-03-04T22:02:35.765Z,3.47
2019-03-04T22:07:42.234Z,3.70
2019-03-04T22:12:48.495Z,3.83
2019-03-04T22:17:54.589Z,3.67
2019-03-04T22:23:00.812Z,3.53
2019-03-04T22:28:06.958Z,3.77
2019-03-04T22:33:13.295Z,4.23
2019-03-04T22:38:19.593Z,3.80
2019-03-04T22:43:25.778Z,4.00
2019-03-04T22:48:31.805Z,3.83
2019-03-04T22:53:38.797Z,3.63
2019-03-04T22:58:44.710Z,3.60
2019-03-04T23:03:50.972Z,3.60
2019-03-04T23:08:57.153Z,3.67
2019-03-04T23:14:16.265Z,3.70
2019-03-04T23:19:22.318Z,3.60
2019-03-04T23:24:28.486Z,3.10
2019-03-04T23:29:35.616Z,3.53
2019-03-04T23:34:41.701Z,3.40
2019-03-04T23:39:47.659Z,3.67
2019-03-04T23:44:54.557Z,3.57
2019-03-04T23:50:18.562Z,4.13
2019-03-04T23:55:24.537Z,4.00
